sensor_id;sensor_type;location;lat;lon;timestamp;P1;P2;P0
73917;PMS5003;63639;52.280;5.162;2023-02-15T00:00:15;83;78;
73917;PMS5003;63639;52.280;5.162;2023-02-15T00:02:42;98;83;
73917;PMS5003;63639;52.280;5.162;2023-02-15T00:05:09;94;87;
73917;PMS5003;63639;52.280;5.162;2023-02-15T00:07:37;84;78;
73917;PMS5003;63639;52.280;5.162;2023-02-15T00:10:04;98;88;
73917;PMS5003;63639;52.280;5.162;2023-02-15T00:12:34;86;78;
73917;PMS5003;63639;52.280;5.162;2023-02-15T00:15:01;100;86;
73917;PMS5003;63639;52.280;5.162;2023-02-15T00:17:28;98;85;
73917;PMS5003;63639;52.280;5.162;2023-02-15T00:19:55;94;83;
73917;PMS5003;63639;52.280;5.162;2023-02-15T00:22:23;94;82;
73917;PMS5003;63639;52.280;5.162;2023-02-15T00:24:49;98;85;
73917;PMS5003;63639;52.280;5.162;2023-02-15T00:27:17;83;75;
73917;PMS5003;63639;52.280;5.162;2023-02-15T00:29:43;95;80;
73917;PMS5003;63639;52.280;5.162;2023-02-15T00:32:11;91;82;
73917;PMS5003;63639;52.280;5.162;2023-02-15T00:34:37;94;83;
73917;PMS5003;63639;52.280;5.162;2023-02-15T00:37:04;89;79;
73917;PMS5003;63639;52.280;5.162;2023-02-15T00:39:31;74;69;
73917;PMS5003;63639;52.280;5.162;2023-02-15T00:41:57;83;79;
73917;PMS5003;63639;52.280;5.162;2023-02-15T00:44:24;83;76;
73917;PMS5003;63639;52.280;5.162;2023-02-15T01:38:54;91;77;
73917;PMS5003;63639;52.280;5.162;2023-02-15T01:41:20;74;68;
73917;PMS5003;63639;52.280;5.162;2023-02-15T01:43:46;93;79;
73917;PMS5003;63639;52.280;5.162;2023-02-15T01:46:15;76;72;
73917;PMS5003;63639;52.280;5.162;2023-02-15T01:48:46;89;77;
73917;PMS5003;63639;52.280;5.162;2023-02-15T01:51:17;76;70;
73917;PMS5003;63639;52.280;5.162;2023-02-15T01:53:48;79;74;
73917;PMS5003;63639;52.280;5.162;2023-02-15T01:56:19;76;70;
73917;PMS5003;63639;52.280;5.162;2023-02-15T01:58:47;80;74;
73917;PMS5003;63639;52.280;5.162;2023-02-15T02:03:42;80;78;
73917;PMS5003;63639;52.280;5.162;2023-02-15T02:06:15;84;75;
73917;PMS5003;63639;52.280;5.162;2023-02-15T02:08:43;94;78;
73917;PMS5003;63639;52.280;5.162;2023-02-15T02:11:10;82;74;
73917;PMS5003;63639;52.280;5.162;2023-02-15T02:13:38;88;77;
73917;PMS5003;63639;52.280;5.162;2023-02-15T02:16:08;90;75;
73917;PMS5003;63639;52.280;5.162;2023-02-15T02:18:44;83;73;
73917;PMS5003;63639;52.280;5.162;2023-02-15T02:21:27;94;85;
73917;PMS5003;63639;52.280;5.162;2023-02-15T02:24:12;88;85;
73917;PMS5003;63639;52.280;5.162;2023-02-15T02:27:11;84;78;
73917;PMS5003;63639;52.280;5.162;2023-02-15T02:29:53;95;85;
73917;PMS5003;63639;52.280;5.162;2023-02-15T02:33:12;92;84;
73917;PMS5003;63639;52.280;5.162;2023-02-15T02:35:49;100;85;
73917;PMS5003;63639;52.280;5.162;2023-02-15T02:38:26;92;80;
73917;PMS5003;63639;52.280;5.162;2023-02-15T02:40:59;84;83;
73917;PMS5003;63639;52.280;5.162;2023-02-15T02:43:33;92;83;
73917;PMS5003;63639;52.280;5.162;2023-02-15T02:46:08;94;82;
73917;PMS5003;63639;52.280;5.162;2023-02-15T02:48:40;86;79;
73917;PMS5003;63639;52.280;5.162;2023-02-15T02:51:07;85;79;
73917;PMS5003;63639;52.280;5.162;2023-02-15T02:53:34;80;77;
73917;PMS5003;63639;52.280;5.162;2023-02-15T02:56:03;83;79;
73917;PMS5003;63639;52.280;5.162;2023-02-15T02:58:36;87;81;
73917;PMS5003;63639;52.280;5.162;2023-02-15T03:01:09;87;83;
73917;PMS5003;63639;52.280;5.162;2023-02-15T03:03:40;81;75;
73917;PMS5003;63639;52.280;5.162;2023-02-15T03:06:10;85;77;
73917;PMS5003;63639;52.280;5.162;2023-02-15T03:08:40;83;79;
73917;PMS5003;63639;52.280;5.162;2023-02-15T03:11:11;85;71;
73917;PMS5003;63639;52.280;5.162;2023-02-15T03:13:38;90;80;
73917;PMS5003;63639;52.280;5.162;2023-02-15T03:16:05;91;85;
73917;PMS5003;63639;52.280;5.162;2023-02-15T03:18:37;88;77;
73917;PMS5003;63639;52.280;5.162;2023-02-15T03:21:08;85;78;
73917;PMS5003;63639;52.280;5.162;2023-02-15T03:23:37;92;85;
73917;PMS5003;63639;52.280;5.162;2023-02-15T03:26:05;96;86;
73917;PMS5003;63639;52.280;5.162;2023-02-15T03:28:35;86;84;
73917;PMS5003;63639;52.280;5.162;2023-02-15T03:31:05;81;73;
73917;PMS5003;63639;52.280;5.162;2023-02-15T03:33:34;94;81;
73917;PMS5003;63639;52.280;5.162;2023-02-15T03:36:06;84;80;
73917;PMS5003;63639;52.280;5.162;2023-02-15T03:38:40;88;77;
73917;PMS5003;63639;52.280;5.162;2023-02-15T03:41:14;76;72;
73917;PMS5003;63639;52.280;5.162;2023-02-15T03:43:46;93;82;
73917;PMS5003;63639;52.280;5.162;2023-02-15T03:46:19;90;74;
73917;PMS5003;63639;52.280;5.162;2023-02-15T03:48:50;90;87;
73917;PMS5003;63639;52.280;5.162;2023-02-15T03:51:19;92;83;
73917;PMS5003;63639;52.280;5.162;2023-02-15T03:53:49;79;76;
73917;PMS5003;63639;52.280;5.162;2023-02-15T03:56:18;86;77;
73917;PMS5003;63639;52.280;5.162;2023-02-15T03:58:45;78;72;
73917;PMS5003;63639;52.280;5.162;2023-02-15T04:01:13;81;74;
73917;PMS5003;63639;52.280;5.162;2023-02-15T04:03:51;76;73;
73917;PMS5003;63639;52.280;5.162;2023-02-15T04:06:22;93;87;
73917;PMS5003;63639;52.280;5.162;2023-02-15T04:08:50;90;80;
73917;PMS5003;63639;52.280;5.162;2023-02-15T04:11:16;85;77;
73917;PMS5003;63639;52.280;5.162;2023-02-15T04:13:43;85;81;
73917;PMS5003;63639;52.280;5.162;2023-02-15T04:16:09;81;71;
73917;PMS5003;63639;52.280;5.162;2023-02-15T04:18:37;85;77;
73917;PMS5003;63639;52.280;5.162;2023-02-15T04:21:05;92;78;
73917;PMS5003;63639;52.280;5.162;2023-02-15T04:23:32;93;79;
73917;PMS5003;63639;52.280;5.162;2023-02-15T04:26:02;86;77;
73917;PMS5003;63639;52.280;5.162;2023-02-15T04:28:30;82;74;
73917;PMS5003;63639;52.280;5.162;2023-02-15T04:30:57;90;82;
73917;PMS5003;63639;52.280;5.162;2023-02-15T04:33:24;102;86;
73917;PMS5003;63639;52.280;5.162;2023-02-15T04:35:51;82;71;
73917;PMS5003;63639;52.280;5.162;2023-02-15T04:38:17;80;75;
73917;PMS5003;63639;52.280;5.162;2023-02-15T04:40:44;87;76;
73917;PMS5003;63639;52.280;5.162;2023-02-15T04:43:15;85;70;
73917;PMS5003;63639;52.280;5.162;2023-02-15T04:45:41;80;72;
73917;PMS5003;63639;52.280;5.162;2023-02-15T04:48:14;77;70;
73917;PMS5003;63639;52.280;5.162;2023-02-15T04:50:41;109;95;
73917;PMS5003;63639;52.280;5.162;2023-02-15T04:53:08;87;69;
73917;PMS5003;63639;52.280;5.162;2023-02-15T04:55:35;82;74;
73917;PMS5003;63639;52.280;5.162;2023-02-15T04:58:02;87;80;
73917;PMS5003;63639;52.280;5.162;2023-02-15T05:00:29;82;79;
73917;PMS5003;63639;52.280;5.162;2023-02-15T05:02:55;87;80;
73917;PMS5003;63639;52.280;5.162;2023-02-15T05:05:22;74;71;
73917;PMS5003;63639;52.280;5.162;2023-02-15T05:07:48;80;71;
73917;PMS5003;63639;52.280;5.162;2023-02-15T05:10:15;80;69;
73917;PMS5003;63639;52.280;5.162;2023-02-15T05:12:42;92;76;
73917;PMS5003;63639;52.280;5.162;2023-02-15T05:15:09;79;70;
73917;PMS5003;63639;52.280;5.162;2023-02-15T05:17:35;82;78;
73917;PMS5003;63639;52.280;5.162;2023-02-15T05:20:02;76;72;
73917;PMS5003;63639;52.280;5.162;2023-02-15T05:22:30;97;86;
73917;PMS5003;63639;52.280;5.162;2023-02-15T05:24:57;74;68;
73917;PMS5003;63639;52.280;5.162;2023-02-15T05:27:24;84;72;
73917;PMS5003;63639;52.280;5.162;2023-02-15T05:29:51;82;68;
73917;PMS5003;63639;52.280;5.162;2023-02-15T05:32:19;90;81;
73917;PMS5003;63639;52.280;5.162;2023-02-15T05:34:46;84;73;
73917;PMS5003;63639;52.280;5.162;2023-02-15T05:37:13;85;72;
73917;PMS5003;63639;52.280;5.162;2023-02-15T05:39:39;81;68;
73917;PMS5003;63639;52.280;5.162;2023-02-15T05:42:06;88;79;
73917;PMS5003;63639;52.280;5.162;2023-02-15T05:44:33;85;78;
73917;PMS5003;63639;52.280;5.162;2023-02-15T05:47:00;86;74;
73917;PMS5003;63639;52.280;5.162;2023-02-15T05:49:27;69;64;
73917;PMS5003;63639;52.280;5.162;2023-02-15T05:51:54;77;72;
73917;PMS5003;63639;52.280;5.162;2023-02-15T05:54:21;78;71;
73917;PMS5003;63639;52.280;5.162;2023-02-15T05:56:48;71;65;
73917;PMS5003;63639;52.280;5.162;2023-02-15T05:59:15;73;67;
73917;PMS5003;63639;52.280;5.162;2023-02-15T06:01:42;83;72;
73917;PMS5003;63639;52.280;5.162;2023-02-15T06:04:09;80;69;
73917;PMS5003;63639;52.280;5.162;2023-02-15T06:06:36;75;72;
73917;PMS5003;63639;52.280;5.162;2023-02-15T06:09:03;79;66;
73917;PMS5003;63639;52.280;5.162;2023-02-15T06:11:29;79;70;
73917;PMS5003;63639;52.280;5.162;2023-02-15T06:13:56;84;75;
73917;PMS5003;63639;52.280;5.162;2023-02-15T06:16:23;77;64;
73917;PMS5003;63639;52.280;5.162;2023-02-15T06:18:49;76;68;
73917;PMS5003;63639;52.280;5.162;2023-02-15T06:21:16;75;68;
73917;PMS5003;63639;52.280;5.162;2023-02-15T06:23:43;78;71;
73917;PMS5003;63639;52.280;5.162;2023-02-15T06:26:10;81;75;
73917;PMS5003;63639;52.280;5.162;2023-02-15T06:28:37;82;71;
73917;PMS5003;63639;52.280;5.162;2023-02-15T06:31:04;74;70;
73917;PMS5003;63639;52.280;5.162;2023-02-15T06:33:32;80;69;
73917;PMS5003;63639;52.280;5.162;2023-02-15T06:35:59;78;72;
73917;PMS5003;63639;52.280;5.162;2023-02-15T06:38:26;71;66;
73917;PMS5003;63639;52.280;5.162;2023-02-15T06:40:53;74;67;
73917;PMS5003;63639;52.280;5.162;2023-02-15T06:43:20;76;70;
73917;PMS5003;63639;52.280;5.162;2023-02-15T06:45:46;87;75;
73917;PMS5003;63639;52.280;5.162;2023-02-15T06:48:14;81;73;
73917;PMS5003;63639;52.280;5.162;2023-02-15T06:50:41;75;67;
73917;PMS5003;63639;52.280;5.162;2023-02-15T06:53:08;80;74;
73917;PMS5003;63639;52.280;5.162;2023-02-15T06:55:34;85;73;
73917;PMS5003;63639;52.280;5.162;2023-02-15T06:58:01;78;70;
73917;PMS5003;63639;52.280;5.162;2023-02-15T07:00:29;79;75;
73917;PMS5003;63639;52.280;5.162;2023-02-15T07:02:56;75;68;
73917;PMS5003;63639;52.280;5.162;2023-02-15T07:05:24;86;74;
73917;PMS5003;63639;52.280;5.162;2023-02-15T07:07:51;83;74;
73917;PMS5003;63639;52.280;5.162;2023-02-15T07:10:18;87;74;
73917;PMS5003;63639;52.280;5.162;2023-02-15T07:12:45;75;68;
73917;PMS5003;63639;52.280;5.162;2023-02-15T07:15:13;78;67;
73917;PMS5003;63639;52.280;5.162;2023-02-15T07:17:42;79;74;
73917;PMS5003;63639;52.280;5.162;2023-02-15T07:20:10;92;77;
73917;PMS5003;63639;52.280;5.162;2023-02-15T07:22:39;68;65;
73917;PMS5003;63639;52.280;5.162;2023-02-15T07:25:06;78;70;
73917;PMS5003;63639;52.280;5.162;2023-02-15T07:27:36;80;69;
73917;PMS5003;63639;52.280;5.162;2023-02-15T07:30:03;87;78;
73917;PMS5003;63639;52.280;5.162;2023-02-15T07:32:32;81;73;
73917;PMS5003;63639;52.280;5.162;2023-02-15T07:34:59;85;74;
73917;PMS5003;63639;52.280;5.162;2023-02-15T07:37:26;76;70;
73917;PMS5003;63639;52.280;5.162;2023-02-15T07:39:53;76;70;
73917;PMS5003;63639;52.280;5.162;2023-02-15T07:42:20;76;74;
73917;PMS5003;63639;52.280;5.162;2023-02-15T07:44:47;85;74;
73917;PMS5003;63639;52.280;5.162;2023-02-15T07:47:14;83;73;
73917;PMS5003;63639;52.280;5.162;2023-02-15T07:49:41;82;76;
73917;PMS5003;63639;52.280;5.162;2023-02-15T07:52:08;78;73;
73917;PMS5003;63639;52.280;5.162;2023-02-15T07:54:35;83;70;
73917;PMS5003;63639;52.280;5.162;2023-02-15T07:57:03;80;78;
73917;PMS5003;63639;52.280;5.162;2023-02-15T07:59:30;90;77;
73917;PMS5003;63639;52.280;5.162;2023-02-15T08:01:57;85;79;
73917;PMS5003;63639;52.280;5.162;2023-02-15T08:04:23;80;74;
73917;PMS5003;63639;52.280;5.162;2023-02-15T08:06:52;88;79;
73917;PMS5003;63639;52.280;5.162;2023-02-15T08:09:19;88;85;
73917;PMS5003;63639;52.280;5.162;2023-02-15T08:11:47;86;78;
73917;PMS5003;63639;52.280;5.162;2023-02-15T08:14:15;80;73;
73917;PMS5003;63639;52.280;5.162;2023-02-15T08:16:43;106;83;
73917;PMS5003;63639;52.280;5.162;2023-02-15T08:19:11;88;80;
73917;PMS5003;63639;52.280;5.162;2023-02-15T08:21:40;93;81;
73917;PMS5003;63639;52.280;5.162;2023-02-15T08:24:09;89;75;
73917;PMS5003;63639;52.280;5.162;2023-02-15T08:26:37;88;81;
73917;PMS5003;63639;52.280;5.162;2023-02-15T08:29:06;83;75;
73917;PMS5003;63639;52.280;5.162;2023-02-15T08:31:34;83;77;
73917;PMS5003;63639;52.280;5.162;2023-02-15T08:34:01;98;88;
73917;PMS5003;63639;52.280;5.162;2023-02-15T08:36:28;89;79;
73917;PMS5003;63639;52.280;5.162;2023-02-15T08:38:56;84;76;
73917;PMS5003;63639;52.280;5.162;2023-02-15T08:41:25;96;83;
73917;PMS5003;63639;52.280;5.162;2023-02-15T08:43:53;101;91;
73917;PMS5003;63639;52.280;5.162;2023-02-15T08:46:22;94;81;
73917;PMS5003;63639;52.280;5.162;2023-02-15T08:48:50;87;80;
73917;PMS5003;63639;52.280;5.162;2023-02-15T08:51:18;91;81;
73917;PMS5003;63639;52.280;5.162;2023-02-15T08:53:47;101;86;
73917;PMS5003;63639;52.280;5.162;2023-02-15T08:56:15;89;82;
73917;PMS5003;63639;52.280;5.162;2023-02-15T08:58:43;89;76;
73917;PMS5003;63639;52.280;5.162;2023-02-15T09:01:10;112;92;
73917;PMS5003;63639;52.280;5.162;2023-02-15T09:03:39;97;86;
73917;PMS5003;63639;52.280;5.162;2023-02-15T09:06:06;107;83;
73917;PMS5003;63639;52.280;5.162;2023-02-15T09:08:34;92;82;
73917;PMS5003;63639;52.280;5.162;2023-02-15T09:11:05;102;88;
73917;PMS5003;63639;52.280;5.162;2023-02-15T09:13:33;101;90;
73917;PMS5003;63639;52.280;5.162;2023-02-15T09:16:01;101;93;
73917;PMS5003;63639;52.280;5.162;2023-02-15T09:18:29;95;88;
73917;PMS5003;63639;52.280;5.162;2023-02-15T09:20:56;101;91;
73917;PMS5003;63639;52.280;5.162;2023-02-15T09:23:29;93;90;
73917;PMS5003;63639;52.280;5.162;2023-02-15T09:25:56;102;91;
73917;PMS5003;63639;52.280;5.162;2023-02-15T09:28:22;103;87;
73917;PMS5003;63639;52.280;5.162;2023-02-15T09:30:49;102;87;
73917;PMS5003;63639;52.280;5.162;2023-02-15T09:33:16;92;85;
73917;PMS5003;63639;52.280;5.162;2023-02-15T09:35:42;96;86;
73917;PMS5003;63639;52.280;5.162;2023-02-15T09:38:09;96;86;
73917;PMS5003;63639;52.280;5.162;2023-02-15T09:40:38;92;86;
73917;PMS5003;63639;52.280;5.162;2023-02-15T09:43:20;89;84;
73917;PMS5003;63639;52.280;5.162;2023-02-15T09:46:01;103;90;
73917;PMS5003;63639;52.280;5.162;2023-02-15T09:48:38;103;91;
73917;PMS5003;63639;52.280;5.162;2023-02-15T09:51:13;99;91;
73917;PMS5003;63639;52.280;5.162;2023-02-15T09:53:56;86;81;
73917;PMS5003;63639;52.280;5.162;2023-02-15T09:56:37;88;80;
73917;PMS5003;63639;52.280;5.162;2023-02-15T09:59:12;89;84;
73917;PMS5003;63639;52.280;5.162;2023-02-15T10:01:50;89;80;
73917;PMS5003;63639;52.280;5.162;2023-02-15T10:04:32;87;81;
73917;PMS5003;63639;52.280;5.162;2023-02-15T10:07:12;85;78;
73917;PMS5003;63639;52.280;5.162;2023-02-15T10:09:55;92;80;
73917;PMS5003;63639;52.280;5.162;2023-02-15T10:12:34;80;71;
73917;PMS5003;63639;52.280;5.162;2023-02-15T10:15:13;85;76;
73917;PMS5003;63639;52.280;5.162;2023-02-15T10:17:53;82;70;
73917;PMS5003;63639;52.280;5.162;2023-02-15T10:20:33;91;83;
73917;PMS5003;63639;52.280;5.162;2023-02-15T10:23:16;86;68;
73917;PMS5003;63639;52.280;5.162;2023-02-15T10:25:58;86;80;
73917;PMS5003;63639;52.280;5.162;2023-02-15T10:28:35;96;82;
73917;PMS5003;63639;52.280;5.162;2023-02-15T10:31:13;86;81;
73917;PMS5003;63639;52.280;5.162;2023-02-15T10:33:49;83;76;
73917;PMS5003;63639;52.280;5.162;2023-02-15T10:36:32;90;85;
73917;PMS5003;63639;52.280;5.162;2023-02-15T10:39:14;78;66;
73917;PMS5003;63639;52.280;5.162;2023-02-15T10:41:51;73;62;
73917;PMS5003;63639;52.280;5.162;2023-02-15T10:44:27;105;84;
73917;PMS5003;63639;52.280;5.162;2023-02-15T10:47:06;85;73;
73917;PMS5003;63639;52.280;5.162;2023-02-15T10:49:48;93;88;
73917;PMS5003;63639;52.280;5.162;2023-02-15T10:52:32;91;84;
73917;PMS5003;63639;52.280;5.162;2023-02-15T10:55:12;93;85;
73917;PMS5003;63639;52.280;5.162;2023-02-15T10:57:49;76;72;
73917;PMS5003;63639;52.280;5.162;2023-02-15T11:00:26;89;77;
73917;PMS5003;63639;52.280;5.162;2023-02-15T11:03:11;98;87;
73917;PMS5003;63639;52.280;5.162;2023-02-15T11:05:52;95;81;
73917;PMS5003;63639;52.280;5.162;2023-02-15T11:08:28;100;90;
73917;PMS5003;63639;52.280;5.162;2023-02-15T11:10:58;93;80;
73917;PMS5003;63639;52.280;5.162;2023-02-15T11:13:31;97;83;
73917;PMS5003;63639;52.280;5.162;2023-02-15T11:16:02;87;77;
73917;PMS5003;63639;52.280;5.162;2023-02-15T11:18:32;84;77;
73917;PMS5003;63639;52.280;5.162;2023-02-15T11:21:04;94;83;
73917;PMS5003;63639;52.280;5.162;2023-02-15T11:23:36;88;82;
73917;PMS5003;63639;52.280;5.162;2023-02-15T11:26:10;88;78;
73917;PMS5003;63639;52.280;5.162;2023-02-15T11:28:43;93;85;
73917;PMS5003;63639;52.280;5.162;2023-02-15T11:31:16;93;85;
73917;PMS5003;63639;52.280;5.162;2023-02-15T11:33:45;108;93;
73917;PMS5003;63639;52.280;5.162;2023-02-15T11:36:17;94;81;
73917;PMS5003;63639;52.280;5.162;2023-02-15T11:38:49;88;78;
73917;PMS5003;63639;52.280;5.162;2023-02-15T11:41:24;94;82;
73917;PMS5003;63639;52.280;5.162;2023-02-15T11:43:56;94;86;
73917;PMS5003;63639;52.280;5.162;2023-02-15T11:46:27;104;87;
73917;PMS5003;63639;52.280;5.162;2023-02-15T11:48:54;101;94;
73917;PMS5003;63639;52.280;5.162;2023-02-15T11:51:20;99;89;
73917;PMS5003;63639;52.280;5.162;2023-02-15T11:53:49;102;94;
73917;PMS5003;63639;52.280;5.162;2023-02-15T11:56:19;110;96;
73917;PMS5003;63639;52.280;5.162;2023-02-15T11:58:49;91;78;
73917;PMS5003;63639;52.280;5.162;2023-02-15T12:01:21;95;84;
73917;PMS5003;63639;52.280;5.162;2023-02-15T12:03:56;100;94;
73917;PMS5003;63639;52.280;5.162;2023-02-15T12:06:30;100;85;
73917;PMS5003;63639;52.280;5.162;2023-02-15T12:09:02;95;87;
73917;PMS5003;63639;52.280;5.162;2023-02-15T12:11:34;103;90;
73917;PMS5003;63639;52.280;5.162;2023-02-15T12:14:04;102;92;
73917;PMS5003;63639;52.280;5.162;2023-02-15T12:16:33;94;88;
73917;PMS5003;63639;52.280;5.162;2023-02-15T12:19:09;104;92;
73917;PMS5003;63639;52.280;5.162;2023-02-15T12:21:54;101;93;
73917;PMS5003;63639;52.280;5.162;2023-02-15T12:24:23;104;93;
73917;PMS5003;63639;52.280;5.162;2023-02-15T12:26:59;90;74;
73917;PMS5003;63639;52.280;5.162;2023-02-15T12:29:29;76;70;
73917;PMS5003;63639;52.280;5.162;2023-02-15T12:32:01;98;93;
73917;PMS5003;63639;52.280;5.162;2023-02-15T12:34:30;100;94;
73917;PMS5003;63639;52.280;5.162;2023-02-15T12:37:08;100;93;
73917;PMS5003;63639;52.280;5.162;2023-02-15T12:39:44;96;88;
73917;PMS5003;63639;52.280;5.162;2023-02-15T12:42:18;94;89;
73917;PMS5003;63639;52.280;5.162;2023-02-15T12:44:53;77;67;
73917;PMS5003;63639;52.280;5.162;2023-02-15T12:47:22;103;97;
73917;PMS5003;63639;52.280;5.162;2023-02-15T12:50:04;106;94;
73917;PMS5003;63639;52.280;5.162;2023-02-15T12:52:32;97;90;
73917;PMS5003;63639;52.280;5.162;2023-02-15T12:55:09;104;97;
73917;PMS5003;63639;52.280;5.162;2023-02-15T12:57:44;114;97;
73917;PMS5003;63639;52.280;5.162;2023-02-15T13:00:24;106;94;
73917;PMS5003;63639;52.280;5.162;2023-02-15T13:02:54;98;93;
73917;PMS5003;63639;52.280;5.162;2023-02-15T13:05:25;98;89;
73917;PMS5003;63639;52.280;5.162;2023-02-15T13:07:57;104;88;
73917;PMS5003;63639;52.280;5.162;2023-02-15T13:10:27;109;94;
73917;PMS5003;63639;52.280;5.162;2023-02-15T13:12:56;98;92;
73917;PMS5003;63639;52.280;5.162;2023-02-15T13:15:25;99;94;
73917;PMS5003;63639;52.280;5.162;2023-02-15T13:17:57;80;70;
73917;PMS5003;63639;52.280;5.162;2023-02-15T13:20:25;99;94;
73917;PMS5003;63639;52.280;5.162;2023-02-15T13:22:55;86;86;
73917;PMS5003;63639;52.280;5.162;2023-02-15T13:25:25;98;90;
73917;PMS5003;63639;52.280;5.162;2023-02-15T13:27:56;104;91;
73917;PMS5003;63639;52.280;5.162;2023-02-15T13:30:28;103;93;
73917;PMS5003;63639;52.280;5.162;2023-02-15T13:32:59;70;56;
73917;PMS5003;63639;52.280;5.162;2023-02-15T13:35:31;83;66;
73917;PMS5003;63639;52.280;5.162;2023-02-15T13:38:10;110;101;
73917;PMS5003;63639;52.280;5.162;2023-02-15T13:40:50;101;92;
73917;PMS5003;63639;52.280;5.162;2023-02-15T13:43:25;106;93;
73917;PMS5003;63639;52.280;5.162;2023-02-15T13:46:13;111;104;
73917;PMS5003;63639;52.280;5.162;2023-02-15T13:48:51;103;94;
73917;PMS5003;63639;52.280;5.162;2023-02-15T13:51:32;97;82;
73917;PMS5003;63639;52.280;5.162;2023-02-15T13:54:11;99;91;
73917;PMS5003;63639;52.280;5.162;2023-02-15T13:56:55;107;101;
73917;PMS5003;63639;52.280;5.162;2023-02-15T13:59:36;111;100;
73917;PMS5003;63639;52.280;5.162;2023-02-15T14:02:27;112;101;
73917;PMS5003;63639;52.280;5.162;2023-02-15T14:05:12;101;91;
73917;PMS5003;63639;52.280;5.162;2023-02-15T14:07:53;118;109;
73917;PMS5003;63639;52.280;5.162;2023-02-15T14:10:31;113;99;
73917;PMS5003;63639;52.280;5.162;2023-02-15T14:13:16;112;99;
73917;PMS5003;63639;52.280;5.162;2023-02-15T14:16:01;91;86;
73917;PMS5003;63639;52.280;5.162;2023-02-15T14:18:35;104;87;
73917;PMS5003;63639;52.280;5.162;2023-02-15T14:21:07;114;107;
73917;PMS5003;63639;52.280;5.162;2023-02-15T14:23:43;108;101;
73917;PMS5003;63639;52.280;5.162;2023-02-15T14:26:21;88;78;
73917;PMS5003;63639;52.280;5.162;2023-02-15T14:28:58;103;92;
73917;PMS5003;63639;52.280;5.162;2023-02-15T14:31:34;108;96;
73917;PMS5003;63639;52.280;5.162;2023-02-15T14:34:07;103;90;
73917;PMS5003;63639;52.280;5.162;2023-02-15T14:36:45;102;94;
73917;PMS5003;63639;52.280;5.162;2023-02-15T14:39:16;108;102;
73917;PMS5003;63639;52.280;5.162;2023-02-15T14:41:53;102;93;
73917;PMS5003;63639;52.280;5.162;2023-02-15T14:44:28;94;79;
73917;PMS5003;63639;52.280;5.162;2023-02-15T14:47:04;112;103;
73917;PMS5003;63639;52.280;5.162;2023-02-15T14:49:37;71;56;
73917;PMS5003;63639;52.280;5.162;2023-02-15T14:52:06;107;97;
73917;PMS5003;63639;52.280;5.162;2023-02-15T14:55:07;109;97;
73917;PMS5003;63639;52.280;5.162;2023-02-15T14:57:34;103;95;
73917;PMS5003;63639;52.280;5.162;2023-02-15T15:00:03;101;90;
73917;PMS5003;63639;52.280;5.162;2023-02-15T15:02:56;109;101;
73917;PMS5003;63639;52.280;5.162;2023-02-15T15:05:24;111;96;
73917;PMS5003;63639;52.280;5.162;2023-02-15T15:07:58;93;85;
73917;PMS5003;63639;52.280;5.162;2023-02-15T15:10:37;93;84;
73917;PMS5003;63639;52.280;5.162;2023-02-15T15:13:39;107;98;
73917;PMS5003;63639;52.280;5.162;2023-02-15T15:16:50;102;91;
73917;PMS5003;63639;52.280;5.162;2023-02-15T15:19:58;111;107;
73917;PMS5003;63639;52.280;5.162;2023-02-15T15:22:26;104;88;
73917;PMS5003;63639;52.280;5.162;2023-02-15T15:24:55;122;109;
73917;PMS5003;63639;52.280;5.162;2023-02-15T15:27:55;113;101;
73917;PMS5003;63639;52.280;5.162;2023-02-15T15:30:53;124;105;
73917;PMS5003;63639;52.280;5.162;2023-02-15T15:35:33;117;106;
73917;PMS5003;63639;52.280;5.162;2023-02-15T15:38:09;114;108;
73917;PMS5003;63639;52.280;5.162;2023-02-15T15:40:56;107;104;
73917;PMS5003;63639;52.280;5.162;2023-02-15T15:43:49;103;96;
73917;PMS5003;63639;52.280;5.162;2023-02-15T15:46:37;106;99;
73917;PMS5003;63639;52.280;5.162;2023-02-15T15:49:18;118;108;
73917;PMS5003;63639;52.280;5.162;2023-02-15T15:51:47;114;96;
73917;PMS5003;63639;52.280;5.162;2023-02-15T15:54:16;120;108;
73917;PMS5003;63639;52.280;5.162;2023-02-15T15:56:46;110;105;
73917;PMS5003;63639;52.280;5.162;2023-02-15T15:59:18;123;104;
73917;PMS5003;63639;52.280;5.162;2023-02-15T16:01:48;116;107;
73917;PMS5003;63639;52.280;5.162;2023-02-15T16:04:22;104;96;
73917;PMS5003;63639;52.280;5.162;2023-02-15T16:06:50;117;105;
73917;PMS5003;63639;52.280;5.162;2023-02-15T16:09:19;120;111;
73917;PMS5003;63639;52.280;5.162;2023-02-15T16:11:48;105;90;
73917;PMS5003;63639;52.280;5.162;2023-02-15T16:14:19;77;73;
73917;PMS5003;63639;52.280;5.162;2023-02-15T16:16:53;122;113;
73917;PMS5003;63639;52.280;5.162;2023-02-15T16:19:23;108;90;
73917;PMS5003;63639;52.280;5.162;2023-02-15T16:21:54;116;107;
73917;PMS5003;63639;52.280;5.162;2023-02-15T16:24:33;128;107;
73917;PMS5003;63639;52.280;5.162;2023-02-15T16:27:11;126;105;
73917;PMS5003;63639;52.280;5.162;2023-02-15T16:29:46;115;107;
73917;PMS5003;63639;52.280;5.162;2023-02-15T16:32:16;110;98;
73917;PMS5003;63639;52.280;5.162;2023-02-15T16:34:54;105;95;
73917;PMS5003;63639;52.280;5.162;2023-02-15T16:37:23;117;106;
73917;PMS5003;63639;52.280;5.162;2023-02-15T16:39:51;110;102;
73917;PMS5003;63639;52.280;5.162;2023-02-15T16:42:18;114;100;
73917;PMS5003;63639;52.280;5.162;2023-02-15T16:44:46;102;86;
73917;PMS5003;63639;52.280;5.162;2023-02-15T16:47:17;116;111;
73917;PMS5003;63639;52.280;5.162;2023-02-15T16:49:48;113;100;
73917;PMS5003;63639;52.280;5.162;2023-02-15T16:52:19;101;89;
73917;PMS5003;63639;52.280;5.162;2023-02-15T16:54:51;107;91;
73917;PMS5003;63639;52.280;5.162;2023-02-15T16:57:21;81;67;
73917;PMS5003;63639;52.280;5.162;2023-02-15T16:59:52;121;109;
73917;PMS5003;63639;52.280;5.162;2023-02-15T17:02:23;102;90;
73917;PMS5003;63639;52.280;5.162;2023-02-15T17:05:30;119;101;
73917;PMS5003;63639;52.280;5.162;2023-02-15T17:08:12;109;99;
73917;PMS5003;63639;52.280;5.162;2023-02-15T17:11:01;115;106;
73917;PMS5003;63639;52.280;5.162;2023-02-15T17:13:35;128;113;
73917;PMS5003;63639;52.280;5.162;2023-02-15T17:16:26;108;93;
73917;PMS5003;63639;52.280;5.162;2023-02-15T17:18:55;118;107;
73917;PMS5003;63639;52.280;5.162;2023-02-15T17:21:23;110;94;
73917;PMS5003;63639;52.280;5.162;2023-02-15T17:23:59;124;110;
73917;PMS5003;63639;52.280;5.162;2023-02-15T17:26:29;117;107;
73917;PMS5003;63639;52.280;5.162;2023-02-15T17:28:59;108;99;
73917;PMS5003;63639;52.280;5.162;2023-02-15T17:31:29;122;110;
73917;PMS5003;63639;52.280;5.162;2023-02-15T17:33:58;110;101;
73917;PMS5003;63639;52.280;5.162;2023-02-15T17:36:27;124;110;
73917;PMS5003;63639;52.280;5.162;2023-02-15T17:39:00;117;107;